createdAt,value
2017-08-06T18:21:24.960Z,12.00
2017-08-06T18:27:46.505Z,32.00
2017-08-06T18:28:48.060Z,28.00
2017-08-06T18:29:48.054Z,32.00
2017-08-06T18:30:48.052Z,28.00
2017-08-06T18:31:48.054Z,28.00
2017-08-06T18:32:48.048Z,28.00
2017-08-06T18:33:48.048Z,28.00
2017-08-06T18:34:48.342Z,24.00
2017-08-06T18:35:48.041Z,24.00
2017-08-06T18:36:48.036Z,24.00
2017-08-06T18:37:48.041Z,28.00
2017-08-06T18:38:48.029Z,24.00
2017-08-06T18:39:48.021Z,24.00
2017-08-06T18:40:48.019Z,24.00
2017-08-06T18:41:48.014Z,128.00
2017-08-06T18:42:48.013Z,124.00
2017-08-06T18:43:48.009Z,116.00
2017-08-06T18:44:48.005Z,112.00
2017-08-06T18:45:48.003Z,104.00
2017-08-06T18:46:47.999Z,96.00
2017-08-06T18:47:47.998Z,92.00
2017-08-06T18:48:47.997Z,88.00
2017-08-06T18:49:47.992Z,4.00
2017-08-06T18:50:47.991Z,76.00
2017-08-06T18:51:47.986Z,72.00
2017-08-06T18:52:47.985Z,72.00
2017-08-06T18:53:47.982Z,64.00
2017-08-06T18:54:47.979Z,56.00
2017-08-06T18:55:47.972Z,56.00
2017-08-06T18:56:47.968Z,52.00
2017-08-06T18:57:47.966Z,52.00
2017-08-06T18:58:47.962Z,32.00
2017-08-06T18:59:47.956Z,36.00
2017-08-06T19:00:47.957Z,40.00
2017-08-06T19:01:47.950Z,36.00
2017-08-06T19:02:47.947Z,36.00
2017-08-06T19:03:47.962Z,36.00
2017-08-06T19:04:47.948Z,44.00
2017-08-06T19:05:47.946Z,140.00
2017-08-06T19:06:47.944Z,164.00
2017-08-06T19:07:47.941Z,152.00
2017-08-06T19:08:47.937Z,140.00
2017-08-06T19:09:47.935Z,144.00
2017-08-06T19:10:47.929Z,132.00
2017-08-06T19:11:47.923Z,120.00
2017-08-06T19:12:47.923Z,108.00
2017-08-06T19:13:47.915Z,100.00
2017-08-06T19:14:47.913Z,88.00
2017-08-06T19:15:47.911Z,80.00
2017-08-06T19:16:47.904Z,72.00
2017-08-06T19:17:47.901Z,68.00
2017-08-06T19:18:47.894Z,60.00
2017-08-06T19:19:47.895Z,52.00
2017-08-06T19:20:47.895Z,48.00
2017-08-06T19:21:47.886Z,44.00
2017-08-06T19:22:47.888Z,36.00
2017-08-06T19:23:47.879Z,32.00
2017-08-06T19:24:47.875Z,32.00
2017-08-06T19:25:47.870Z,24.00
2017-08-06T19:26:47.870Z,24.00
2017-08-06T19:27:47.857Z,20.00
2017-08-06T19:28:47.850Z,16.00
2017-08-06T19:29:47.849Z,16.00
2017-08-06T19:30:47.842Z,12.00
2017-08-06T19:31:47.850Z,12.00
2017-08-06T19:32:47.837Z,8.00
2017-08-06T19:33:47.830Z,8.00
2017-08-06T19:34:47.825Z,24.00
2017-08-06T19:35:47.817Z,24.00
2017-08-06T19:36:47.810Z,32.00
2017-08-06T19:37:47.809Z,28.00
2017-08-06T19:38:47.799Z,32.00
2017-08-06T19:39:47.794Z,36.00
2017-08-06T19:40:47.792Z,32.00
2017-08-06T19:41:47.784Z,32.00
2017-08-06T19:42:47.777Z,36.00
2017-08-06T19:43:47.775Z,36.00
2017-08-06T19:44:47.771Z,32.00
2017-08-06T19:45:47.764Z,32.00
2017-08-06T19:46:47.762Z,32.00
2017-08-06T19:47:47.756Z,32.00
2017-08-06T19:48:47.748Z,32.00
2017-08-06T19:49:47.743Z,32.00
2017-08-06T19:50:47.737Z,36.00
2017-08-06T19:51:47.726Z,32.00
2017-08-06T19:52:47.724Z,32.00
2017-08-06T19:53:47.715Z,32.00
2017-08-06T19:54:47.714Z,32.00
2017-08-06T19:55:47.707Z,32.00
2017-08-06T19:56:47.701Z,32.00
2017-08-06T19:57:47.695Z,32.00
2017-08-06T19:58:47.687Z,32.00
2017-08-06T19:59:47.693Z,28.00
2017-08-06T20:00:47.679Z,28.00
2017-08-06T20:01:47.676Z,28.00
2017-08-06T20:02:47.666Z,28.00
2017-08-06T20:03:47.661Z,28.00
2017-08-06T20:04:47.657Z,28.00
2017-08-06T20:05:47.651Z,28.00
2017-08-06T20:06:47.645Z,28.00
2017-08-06T20:07:47.637Z,32.00
2017-08-06T20:08:47.628Z,32.00
2017-08-06T20:09:47.625Z,32.00
2017-08-06T20:10:47.616Z,32.00
2017-08-06T20:11:47.613Z,32.00
2017-08-06T20:12:47.605Z,32.00
2017-08-06T20:13:47.601Z,28.00
2017-08-06T20:14:47.596Z,32.00
2017-08-06T20:15:47.592Z,28.00
2017-08-06T20:16:47.588Z,28.00
2017-08-06T20:17:47.579Z,32.00
2017-08-06T20:18:47.577Z,28.00
2017-08-06T20:19:47.569Z,28.00
2017-08-06T20:20:47.561Z,28.00
2017-08-06T20:21:47.558Z,28.00
2017-08-06T20:22:47.549Z,32.00
2017-08-06T20:23:47.541Z,28.00
2017-08-06T20:24:47.538Z,28.00
2017-08-06T20:25:47.530Z,28.00
2017-08-06T20:26:47.523Z,32.00
2017-08-06T20:27:47.515Z,28.00
2017-08-06T20:28:47.512Z,32.00
2017-08-06T20:29:47.504Z,28.00
2017-08-06T20:30:47.499Z,28.00
2017-08-06T20:31:47.496Z,28.00
2017-08-06T20:32:47.490Z,32.00
2017-08-06T20:33:47.488Z,32.00
2017-08-06T20:34:47.476Z,32.00
2017-08-06T20:35:47.468Z,32.00
2017-08-06T20:36:47.461Z,32.00
2017-08-06T20:37:47.454Z,32.00
2017-08-06T20:38:47.449Z,32.00
2017-08-06T20:39:47.450Z,32.00
2017-08-06T20:40:47.439Z,32.00
2017-08-06T20:41:47.435Z,28.00
2017-08-06T20:42:47.425Z,32.00
2017-08-06T20:43:47.421Z,32.00
2017-08-06T20:44:47.416Z,32.00
2017-08-06T20:45:47.409Z,32.00
2017-08-06T20:46:47.401Z,32.00
2017-08-06T20:47:47.403Z,32.00
2017-08-06T20:48:47.385Z,32.00
2017-08-06T20:49:47.378Z,32.00
2017-08-06T20:50:47.373Z,32.00
2017-08-06T20:51:47.367Z,32.00
2017-08-06T20:52:47.360Z,32.00
2017-08-06T20:53:47.354Z,32.00
2017-08-06T20:54:47.345Z,32.00
2017-08-06T20:55:47.343Z,32.00
2017-08-06T20:56:47.356Z,32.00
2017-08-06T20:57:47.329Z,32.00
2017-08-06T20:58:47.327Z,32.00
2017-08-06T20:59:47.316Z,4.00
2017-08-06T21:00:47.315Z,4.00
2017-08-06T21:01:47.315Z,4.00
2017-08-06T21:02:47.298Z,4.00
2017-08-06T21:03:47.292Z,4.00
2017-08-06T21:04:47.282Z,4.00
2017-08-06T21:05:47.292Z,4.00
2017-08-06T21:06:47.266Z,4.00
2017-08-06T21:07:47.260Z,4.00
2017-08-06T21:08:47.257Z,4.00
2017-08-06T21:09:47.249Z,4.00
2017-08-06T21:10:47.241Z,4.00
2017-08-06T21:11:47.266Z,4.00
2017-08-06T21:12:47.232Z,4.00
2017-08-06T21:13:47.226Z,4.00
2017-08-06T21:14:47.216Z,4.00
2017-08-06T21:15:47.215Z,4.00
2017-08-06T21:16:47.203Z,4.00
2017-08-06T21:17:47.201Z,4.00
2017-08-06T21:18:47.191Z,4.00
2017-08-06T21:19:47.180Z,4.00
2017-08-06T21:20:47.175Z,4.00
2017-08-06T21:21:47.165Z,4.00
2017-08-06T21:22:47.161Z,4.00
2017-08-06T21:23:47.163Z,4.00
2017-08-06T21:24:47.146Z,4.00
2017-08-06T21:25:47.140Z,4.00
2017-08-06T21:26:47.133Z,4.00
2017-08-06T21:27:47.130Z,4.00
2017-08-06T21:28:47.124Z,4.00
2017-08-06T21:29:47.116Z,4.00
2017-08-06T21:30:47.109Z,4.00
2017-08-06T21:31:47.101Z,4.00
2017-08-06T21:32:47.109Z,4.00
2017-08-06T21:33:47.088Z,4.00
2017-08-06T21:34:47.084Z,4.00
2017-08-06T21:35:47.071Z,4.00
2017-08-06T21:36:47.063Z,4.00
2017-08-06T21:37:47.058Z,4.00
2017-08-06T21:38:47.049Z,4.00
2017-08-06T21:39:47.047Z,4.00
2017-08-06T21:40:47.042Z,4.00
2017-08-06T21:41:47.033Z,4.00
2017-08-06T21:42:47.027Z,4.00
2017-08-06T21:43:47.016Z,4.00
2017-08-06T21:44:47.007Z,4.00
2017-08-06T21:45:47.003Z,4.00
2017-08-06T21:46:46.992Z,4.00
2017-08-06T21:47:46.992Z,4.00
2017-08-06T21:48:46.978Z,4.00
2017-08-06T21:49:46.974Z,4.00
2017-08-06T21:50:46.964Z,4.00
2017-08-06T21:51:46.962Z,4.00
2017-08-06T21:52:46.957Z,4.00
2017-08-06T21:53:46.947Z,4.00
2017-08-06T21:54:46.944Z,4.00
2017-08-06T21:55:46.935Z,4.00
2017-08-06T21:56:46.926Z,4.00
2017-08-06T21:57:46.921Z,4.00
2017-08-06T21:58:46.912Z,4.00
2017-08-06T21:59:46.900Z,0.00
2017-08-06T22:00:46.895Z,0.00
2017-08-06T22:01:46.886Z,0.00
2017-08-06T22:02:46.881Z,0.00
2017-08-06T22:03:46.871Z,0.00
2017-08-06T22:04:46.867Z,0.00
2017-08-06T22:05:46.857Z,0.00
2017-08-06T22:06:46.852Z,0.00
2017-08-06T22:07:46.849Z,0.00
2017-08-06T22:08:46.841Z,0.00
2017-08-06T22:09:46.835Z,0.00
2017-08-06T22:10:46.825Z,0.00
2017-08-06T22:11:46.819Z,0.00
2017-08-06T22:12:46.813Z,0.00
2017-08-06T22:13:46.804Z,0.00
2017-08-06T22:14:46.798Z,0.00
2017-08-06T22:15:46.787Z,0.00
2017-08-06T22:16:46.777Z,0.00
2017-08-06T22:17:46.773Z,0.00
2017-08-06T22:18:46.764Z,0.00
2017-08-06T22:19:46.758Z,0.00
2017-08-06T22:20:46.749Z,0.00
2017-08-06T22:21:46.749Z,0.00
2017-08-06T22:22:46.735Z,0.00
2017-08-06T22:23:46.733Z,0.00
2017-08-06T22:24:46.727Z,0.00
2017-08-06T22:25:46.718Z,0.00
2017-08-06T22:26:46.712Z,0.00
2017-08-06T22:27:46.705Z,0.00
2017-08-06T22:28:46.695Z,0.00
2017-08-06T22:29:46.689Z,0.00
2017-08-06T22:30:46.682Z,0.00
2017-08-06T22:31:46.669Z,0.00
2017-08-06T22:32:46.664Z,0.00
2017-08-06T22:33:46.655Z,0.00
2017-08-06T22:34:46.647Z,0.00
2017-08-06T22:35:46.639Z,0.00
2017-08-06T22:36:46.637Z,0.00
2017-08-06T22:37:46.624Z,0.00
2017-08-06T22:38:46.619Z,0.00
2017-08-06T22:39:46.615Z,0.00
2017-08-06T22:40:46.606Z,0.00
2017-08-06T22:41:46.601Z,0.00
2017-08-06T22:42:46.591Z,0.00
2017-08-06T22:43:46.585Z,0.00
2017-08-06T22:44:46.576Z,0.00
2017-08-06T22:45:46.570Z,0.00
2017-08-06T22:46:46.560Z,0.00
2017-08-06T22:47:46.549Z,0.00
2017-08-06T22:48:46.544Z,0.00
2017-08-06T22:49:46.534Z,0.00
2017-08-06T22:50:46.528Z,0.00
2017-08-06T22:51:46.522Z,0.00
2017-08-06T22:52:46.513Z,0.00
2017-08-06T22:53:46.504Z,0.00
2017-08-06T22:54:46.498Z,0.00
2017-08-06T22:55:46.497Z,0.00
2017-08-06T22:56:46.486Z,0.00
2017-08-06T22:57:46.480Z,0.00
2017-08-06T22:58:46.471Z,0.00
2017-08-06T22:59:46.464Z,0.00
2017-08-06T23:00:46.459Z,0.00
2017-08-06T23:01:46.449Z,0.00
2017-08-06T23:02:46.443Z,0.00
2017-08-06T23:03:46.432Z,0.00
2017-08-06T23:04:46.422Z,0.00
2017-08-06T23:05:46.418Z,0.00
2017-08-06T23:06:46.407Z,0.00
2017-08-06T23:07:46.401Z,0.00
2017-08-06T23:08:46.394Z,0.00
2017-08-06T23:09:46.388Z,0.00
2017-08-06T23:10:46.378Z,0.00
2017-08-06T23:11:46.375Z,0.00
2017-08-06T23:12:46.369Z,0.00
2017-08-06T23:13:46.363Z,0.00
2017-08-06T23:14:46.354Z,0.00
2017-08-06T23:15:46.347Z,0.00
2017-08-06T23:16:46.336Z,0.00
2017-08-06T23:17:46.331Z,0.00
2017-08-06T23:18:46.320Z,0.00
2017-08-06T23:19:46.311Z,0.00
2017-08-06T23:20:46.304Z,0.00
2017-08-06T23:21:46.294Z,0.00
2017-08-06T23:22:46.288Z,0.00
2017-08-06T23:23:46.279Z,0.00
2017-08-06T23:24:46.273Z,0.00
2017-08-06T23:25:46.263Z,0.00
2017-08-06T23:26:46.258Z,0.00
2017-08-06T23:27:46.254Z,0.00
2017-08-06T23:28:46.243Z,0.00
2017-08-06T23:29:46.237Z,0.00
2017-08-06T23:30:46.229Z,0.00
2017-08-06T23:31:46.221Z,0.00
2017-08-06T23:32:46.214Z,0.00
2017-08-06T23:33:46.203Z,0.00
2017-08-06T23:34:46.197Z,0.00
2017-08-06T23:35:46.185Z,0.00
2017-08-06T23:36:46.176Z,0.00
2017-08-06T23:37:46.170Z,0.00
2017-08-06T23:38:46.159Z,0.00
2017-08-06T23:39:46.155Z,0.00
2017-08-06T23:40:46.144Z,0.00
2017-08-06T23:41:46.139Z,0.00
2017-08-06T23:42:46.126Z,0.00
2017-08-06T23:43:46.125Z,0.00
2017-08-06T23:44:46.117Z,0.00
2017-08-06T23:45:46.108Z,0.00
2017-08-06T23:46:46.101Z,0.00
2017-08-06T23:47:46.091Z,0.00
2017-08-06T23:48:46.082Z,0.00
2017-08-06T23:49:46.075Z,0.00
2017-08-06T23:50:46.063Z,0.00
2017-08-06T23:51:46.061Z,0.00
2017-08-06T23:52:46.054Z,0.00
2017-08-06T23:53:46.044Z,0.00
2017-08-06T23:54:46.037Z,0.00
2017-08-06T23:55:46.027Z,0.00
2017-08-06T23:56:46.022Z,0.00
2017-08-06T23:57:46.013Z,0.00
2017-08-06T23:58:46.306Z,0.00
2017-08-06T23:59:45.993Z,0.00
